createdAt,value
2019-04-25T00:02:15.166Z,48.10
2019-04-25T00:04:44.629Z,48.00
2019-04-25T00:07:13.043Z,47.90
2019-04-25T00:09:44.045Z,48.00
2019-04-25T00:12:13.705Z,47.80
2019-04-25T00:14:42.516Z,47.80
2019-04-25T00:17:11.554Z,47.80
2019-04-25T00:19:40.719Z,47.80
2019-04-25T00:22:12.023Z,47.90
2019-04-25T00:24:52.044Z,47.80
2019-04-25T00:27:23.624Z,47.80
2019-04-25T00:29:51.909Z,47.80
2019-04-25T00:32:21.634Z,47.80
2019-04-25T00:34:51.799Z,47.80
2019-04-25T00:37:20.404Z,47.80
2019-04-25T00:39:49.155Z,47.70
2019-04-25T00:42:17.668Z,47.50
2019-04-25T00:44:46.102Z,47.70
2019-04-25T00:47:14.395Z,47.50
2019-04-25T00:49:44.034Z,47.70
2019-04-25T00:52:13.055Z,47.60
2019-04-25T00:54:43.078Z,47.60
2019-04-25T00:57:12.226Z,47.60
2019-04-25T00:59:48.882Z,47.70
2019-04-25T01:02:19.260Z,47.70
2019-04-25T01:04:47.735Z,47.50
2019-04-25T01:07:16.534Z,47.50
2019-04-25T01:09:45.651Z,47.50
2019-04-25T01:12:14.940Z,47.40
2019-04-25T01:14:44.272Z,47.40
2019-04-25T01:17:13.686Z,47.50
2019-04-25T01:19:44.032Z,47.40
2019-04-25T01:22:14.396Z,47.30
2019-04-25T01:24:43.925Z,47.30
2019-04-25T01:27:13.533Z,47.20
2019-04-25T01:29:42.291Z,48.00
2019-04-25T01:32:13.957Z,47.40
2019-04-25T01:35:00.484Z,47.30
2019-04-25T01:37:34.106Z,47.30
2019-04-25T01:40:06.848Z,47.30
2019-04-25T01:42:49.565Z,47.30
2019-04-25T01:45:19.278Z,47.30
2019-04-25T01:47:48.912Z,47.30
2019-04-25T01:50:17.631Z,47.30
2019-04-25T01:52:45.938Z,47.30
2019-04-25T01:55:14.819Z,47.30
2019-04-25T01:57:45.084Z,47.10
2019-04-25T02:00:15.576Z,47.00
2019-04-25T02:02:43.857Z,47.00
2019-04-25T02:05:13.941Z,46.90
2019-04-25T02:07:42.334Z,47.00
2019-04-25T02:10:10.784Z,47.10
2019-04-25T02:12:41.062Z,47.10
2019-04-25T02:15:09.708Z,47.20
2019-04-25T02:17:38.006Z,47.20
2019-04-25T02:20:06.454Z,47.20
2019-04-25T02:22:35.652Z,47.20
2019-04-25T02:25:05.700Z,47.90
2019-04-25T02:27:34.280Z,47.20
2019-04-25T02:30:04.350Z,47.20
2019-04-25T02:32:34.385Z,47.30
2019-04-25T02:35:09.138Z,47.30
2019-04-25T02:37:35.154Z,47.40
2019-04-25T02:40:07.898Z,48.00
2019-04-25T02:42:35.637Z,47.30
2019-04-25T02:45:10.865Z,47.30
2019-04-25T02:47:58.511Z,47.40
2019-04-25T02:50:34.902Z,47.30
2019-04-25T02:53:10.558Z,47.30
2019-04-25T02:55:38.939Z,47.40
2019-04-25T02:58:10.016Z,47.30
2019-04-25T03:00:51.603Z,47.30
2019-04-25T03:03:08.634Z,47.40
2019-04-25T03:05:37.434Z,47.30
2019-04-25T03:08:09.034Z,47.20
2019-04-25T03:10:36.122Z,47.90
2019-04-25T03:13:09.772Z,47.20
2019-04-25T03:15:36.498Z,47.10
2019-04-25T03:18:08.498Z,47.20
2019-04-25T03:20:39.116Z,47.20
2019-04-25T03:23:25.408Z,47.10
2019-04-25T03:25:53.680Z,47.10
2019-04-25T03:28:23.801Z,47.00
2019-04-25T03:30:54.935Z,47.00
2019-04-25T03:33:22.341Z,46.90
2019-04-25T03:35:51.034Z,47.00
2019-04-25T03:38:19.350Z,47.00
2019-04-25T03:40:47.635Z,46.90
2019-04-25T03:43:15.911Z,46.90
2019-04-25T03:45:45.293Z,46.90
2019-04-25T03:48:14.018Z,46.90
2019-04-25T03:50:44.105Z,46.90
2019-04-25T03:53:13.905Z,46.90
2019-04-25T03:55:44.025Z,47.00
2019-04-25T03:58:13.116Z,47.60
2019-04-25T04:00:44.747Z,46.90
2019-04-25T04:03:14.933Z,46.90
2019-04-25T04:05:44.109Z,46.90
2019-04-25T04:08:14.853Z,46.90
2019-04-25T04:10:43.270Z,46.90
2019-04-25T04:13:12.261Z,47.00
2019-04-25T04:15:41.074Z,46.80
2019-04-25T04:18:11.014Z,46.90
2019-04-25T04:20:57.342Z,46.80
2019-04-25T04:23:45.551Z,46.80
2019-04-25T04:26:14.506Z,46.80
2019-04-25T04:28:43.553Z,46.60
2019-04-25T04:31:12.577Z,46.60
2019-04-25T04:33:43.135Z,46.50
2019-04-25T04:36:11.591Z,46.40
2019-04-25T04:38:40.236Z,46.50
2019-04-25T04:41:09.631Z,46.40
2019-04-25T04:43:38.033Z,46.40
2019-04-25T04:46:06.331Z,46.30
2019-04-25T04:48:34.623Z,46.30
2019-04-25T04:51:03.449Z,46.30
2019-04-25T04:53:35.609Z,46.40
2019-04-25T04:56:02.246Z,46.50
2019-04-25T04:58:30.557Z,46.10
2019-04-25T05:00:59.108Z,46.90
2019-04-25T05:03:35.060Z,46.20
2019-04-25T05:06:20.545Z,46.20
2019-04-25T05:08:50.526Z,46.10
2019-04-25T05:11:19.858Z,46.20
2019-04-25T05:13:48.299Z,46.70
2019-04-25T05:16:16.590Z,46.20
2019-04-25T05:18:45.193Z,46.20
2019-04-25T05:21:15.687Z,46.30
2019-04-25T05:23:44.322Z,46.20
2019-04-25T05:26:14.890Z,46.10
2019-04-25T05:28:44.438Z,46.10
2019-04-25T05:31:18.123Z,46.00
2019-04-25T05:33:46.836Z,45.90
2019-04-25T05:36:17.206Z,45.90
2019-04-25T05:38:45.382Z,45.90
2019-04-25T05:41:16.015Z,45.80
2019-04-25T05:43:45.286Z,45.90
2019-04-25T05:46:13.558Z,45.80
2019-04-25T05:48:41.861Z,45.70
2019-04-25T05:51:10.320Z,45.70
2019-04-25T05:53:39.012Z,45.60
2019-04-25T05:56:07.572Z,45.50
2019-04-25T05:58:36.164Z,45.50
2019-04-25T06:01:04.481Z,45.50
2019-04-25T06:03:33.971Z,45.60
2019-04-25T06:06:03.401Z,45.70
2019-04-25T06:08:34.156Z,45.70
2019-04-25T06:11:17.933Z,45.60
2019-04-25T06:13:53.683Z,45.40
2019-04-25T06:16:24.236Z,45.30
2019-04-25T06:19:14.264Z,45.20
2019-04-25T06:21:36.882Z,45.20
2019-04-25T06:24:25.943Z,45.20
2019-04-25T06:26:56.297Z,45.20
2019-04-25T06:29:25.006Z,45.30
2019-04-25T06:32:04.269Z,45.20
2019-04-25T06:34:26.762Z,45.20
2019-04-25T06:36:53.725Z,45.20
2019-04-25T06:39:22.044Z,45.20
2019-04-25T06:41:50.690Z,45.20
2019-04-25T06:44:35.587Z,45.10
2019-04-25T06:47:15.114Z,45.20
2019-04-25T06:49:44.494Z,45.30
2019-04-25T06:52:13.920Z,45.40
2019-04-25T06:54:43.719Z,45.60
2019-04-25T06:57:14.026Z,45.80
2019-04-25T06:59:43.720Z,45.90
2019-04-25T07:02:13.859Z,45.80
2019-04-25T07:04:43.469Z,45.70
2019-04-25T07:07:14.831Z,45.80
2019-04-25T07:09:43.362Z,45.90
2019-04-25T07:12:13.472Z,45.90
2019-04-25T07:14:43.880Z,46.10
2019-04-25T07:17:14.140Z,46.00
2019-04-25T07:19:44.098Z,45.80
2019-04-25T07:22:13.940Z,46.20
2019-04-25T07:24:43.980Z,46.10
2019-04-25T07:27:17.313Z,46.30
2019-04-25T07:29:47.244Z,46.40
2019-04-25T07:32:33.056Z,46.10
2019-04-25T07:35:03.628Z,46.90
2019-04-25T07:37:34.253Z,46.20
2019-04-25T07:40:02.124Z,46.10
2019-04-25T07:42:30.421Z,46.40
2019-04-25T07:44:59.047Z,46.00
2019-04-25T07:47:27.434Z,46.30
2019-04-25T07:49:56.081Z,46.90
2019-04-25T07:52:24.661Z,46.50
2019-04-25T07:54:53.908Z,46.50
2019-04-25T07:57:23.800Z,46.30
2019-04-25T07:59:53.683Z,46.80
2019-04-25T08:02:23.328Z,46.70
2019-04-25T08:04:51.726Z,46.60
2019-04-25T08:07:20.435Z,46.40
2019-04-25T08:09:49.043Z,46.60
2019-04-25T08:12:17.730Z,46.90
2019-04-25T08:14:47.688Z,46.60
2019-04-25T08:17:27.184Z,46.60
2019-04-25T08:19:55.482Z,46.60
2019-04-25T08:22:24.046Z,46.60
2019-04-25T08:24:53.816Z,46.60
2019-04-25T08:27:23.178Z,46.80
2019-04-25T08:29:51.944Z,46.80
2019-04-25T08:32:20.531Z,46.60
2019-04-25T08:34:48.826Z,46.60
2019-04-25T08:37:20.953Z,46.60
2019-04-25T08:39:47.420Z,46.60
2019-04-25T08:42:15.770Z,46.60
2019-04-25T08:44:44.965Z,46.70
2019-04-25T08:47:14.461Z,46.90
2019-04-25T08:49:45.954Z,46.60
2019-04-25T08:52:14.473Z,46.80
2019-04-25T08:54:57.659Z,46.80
2019-04-25T08:57:44.458Z,47.00
2019-04-25T09:00:24.082Z,46.80
2019-04-25T09:02:57.105Z,46.90
2019-04-25T09:05:29.811Z,46.80
2019-04-25T09:07:58.464Z,46.80
2019-04-25T09:10:27.034Z,46.90
2019-04-25T09:12:55.635Z,46.80
2019-04-25T09:15:24.271Z,46.80
2019-04-25T09:17:54.720Z,46.70
2019-04-25T09:20:23.626Z,46.90
2019-04-25T09:22:54.106Z,46.70
2019-04-25T09:25:23.815Z,46.70
2019-04-25T09:27:54.192Z,46.60
2019-04-25T09:30:24.064Z,46.60
2019-04-25T09:32:53.494Z,46.60
2019-04-25T09:35:23.476Z,46.50
2019-04-25T09:37:53.580Z,46.60
2019-04-25T09:40:23.847Z,46.70
2019-04-25T09:42:53.710Z,46.70
2019-04-25T09:45:27.088Z,46.50
2019-04-25T09:47:57.305Z,46.40
2019-04-25T09:50:29.951Z,46.40
2019-04-25T09:52:58.251Z,46.40
2019-04-25T09:55:47.191Z,46.50
2019-04-25T09:58:33.859Z,46.40
2019-04-25T10:01:09.927Z,46.90
2019-04-25T10:03:38.657Z,45.60
2019-04-25T10:06:07.039Z,45.40
2019-04-25T10:08:38.685Z,45.40
2019-04-25T10:11:07.298Z,44.90
2019-04-25T10:13:35.979Z,45.10
2019-04-25T10:16:09.949Z,45.00
2019-04-25T10:18:43.701Z,44.30
2019-04-25T10:21:11.664Z,44.40
2019-04-25T10:23:42.088Z,44.50
2019-04-25T10:26:11.558Z,44.50
2019-04-25T10:28:41.547Z,44.70
2019-04-25T10:31:10.488Z,44.40
2019-04-25T10:33:39.707Z,44.60
2019-04-25T10:36:09.699Z,44.60
2019-04-25T10:38:39.341Z,44.50
2019-04-25T10:41:08.827Z,44.50
2019-04-25T10:43:37.295Z,44.50
2019-04-25T10:46:05.574Z,44.30
2019-04-25T10:48:35.500Z,44.50
2019-04-25T10:51:04.235Z,44.70
2019-04-25T10:53:33.819Z,44.60
2019-04-25T10:56:03.796Z,44.70
2019-04-25T10:58:33.798Z,44.70
2019-04-25T11:01:03.645Z,45.00
2019-04-25T11:03:33.897Z,45.00
2019-04-25T11:06:03.923Z,44.80
2019-04-25T11:08:34.092Z,44.70
2019-04-25T11:11:03.795Z,44.80
2019-04-25T11:13:35.150Z,44.80
2019-04-25T11:16:03.535Z,44.80
2019-04-25T11:18:33.918Z,44.90
2019-04-25T11:21:04.292Z,44.50
2019-04-25T11:23:32.419Z,44.60
2019-04-25T11:26:00.711Z,44.70
2019-04-25T11:28:29.244Z,44.70
2019-04-25T11:30:57.910Z,44.80
2019-04-25T11:33:26.559Z,44.70
2019-04-25T11:35:56.301Z,44.80
2019-04-25T11:38:33.891Z,45.60
2019-04-25T11:41:04.018Z,45.20
2019-04-25T11:43:33.755Z,45.00
2019-04-25T11:46:04.825Z,45.00
2019-04-25T11:48:34.026Z,45.40
2019-04-25T11:51:03.642Z,45.70
2019-04-25T11:53:33.778Z,45.40
2019-04-25T11:56:03.727Z,46.10
2019-04-25T11:58:32.689Z,46.10
2019-04-25T12:01:01.469Z,46.20
2019-04-25T12:03:30.153Z,46.40
2019-04-25T12:05:58.433Z,46.40
2019-04-25T12:08:26.712Z,46.50
2019-04-25T12:10:55.037Z,47.40
2019-04-25T12:13:24.255Z,46.40
2019-04-25T12:15:54.559Z,46.20
2019-04-25T12:18:25.552Z,45.70
2019-04-25T12:20:57.950Z,45.70
2019-04-25T12:23:26.186Z,45.80
2019-04-25T12:25:55.308Z,46.60
2019-04-25T12:28:24.129Z,45.90
2019-04-25T12:30:54.969Z,45.70
2019-04-25T12:33:23.889Z,45.70
2019-04-25T12:35:53.800Z,45.80
2019-04-25T12:38:22.531Z,45.70
2019-04-25T12:40:50.807Z,45.80
2019-04-25T12:43:19.827Z,46.00
2019-04-25T12:45:56.163Z,46.10
2019-04-25T12:48:26.127Z,46.20
2019-04-25T12:50:55.442Z,46.10
2019-04-25T12:53:24.260Z,46.50
2019-04-25T12:55:53.792Z,47.10
2019-04-25T12:58:25.295Z,47.10
2019-04-25T13:00:59.071Z,46.90
2019-04-25T13:03:27.191Z,47.60
2019-04-25T13:05:56.341Z,47.00
2019-04-25T13:08:25.274Z,47.00
2019-04-25T13:10:54.367Z,47.40
2019-04-25T13:13:24.154Z,47.30
2019-04-25T13:15:53.433Z,47.30
2019-04-25T13:18:24.070Z,47.30
2019-04-25T13:20:54.996Z,47.60
2019-04-25T13:23:23.891Z,48.10
2019-04-25T13:25:55.798Z,47.60
2019-04-25T13:28:32.272Z,47.80
2019-04-25T13:31:17.372Z,47.70
2019-04-25T13:33:52.170Z,47.80
2019-04-25T13:36:24.027Z,47.80
2019-04-25T13:38:57.072Z,47.80
2019-04-25T13:41:25.818Z,48.60
2019-04-25T13:43:54.726Z,48.30
2019-04-25T13:46:26.116Z,48.10
2019-04-25T13:48:54.346Z,49.40
2019-04-25T13:51:24.596Z,48.50
2019-04-25T13:53:54.482Z,48.80
2019-04-25T13:56:25.105Z,48.60
2019-04-25T13:58:55.874Z,48.90
2019-04-25T14:01:27.696Z,49.30
2019-04-25T14:03:56.380Z,48.80
2019-04-25T14:06:28.384Z,49.00
2019-04-25T14:08:57.128Z,48.80
2019-04-25T14:11:25.952Z,48.80
2019-04-25T14:13:54.648Z,49.70
2019-04-25T14:16:36.860Z,50.20
2019-04-25T14:19:07.131Z,50.60
2019-04-25T14:21:35.582Z,49.80
2019-04-25T14:24:04.457Z,49.30
2019-04-25T14:26:33.086Z,49.90
2019-04-25T14:29:01.684Z,49.30
2019-04-25T14:31:41.452Z,50.10
2019-04-25T14:34:00.416Z,51.30
2019-04-25T14:36:28.822Z,50.10
2019-04-25T14:38:57.440Z,50.40
2019-04-25T14:41:26.087Z,52.20
2019-04-25T14:43:54.817Z,52.00
2019-04-25T14:46:23.397Z,52.30
2019-04-25T14:48:51.707Z,52.30
2019-04-25T14:51:20.111Z,52.20
2019-04-25T14:53:48.732Z,52.80
2019-04-25T14:56:35.766Z,52.50
2019-04-25T14:59:05.702Z,51.70
2019-04-25T15:01:44.554Z,51.50
2019-04-25T15:04:04.675Z,51.40
2019-04-25T15:06:33.262Z,51.60
2019-04-25T15:09:01.624Z,51.20
2019-04-25T15:11:29.922Z,51.20
2019-04-25T15:13:58.283Z,51.30
2019-04-25T15:16:27.081Z,51.80
2019-04-25T15:18:55.775Z,50.90
2019-04-25T15:21:25.184Z,51.10
2019-04-25T15:24:00.234Z,51.10
2019-04-25T15:26:24.770Z,50.90
2019-04-25T15:28:53.439Z,51.10
2019-04-25T15:31:22.072Z,51.20
2019-04-25T15:33:50.467Z,51.20
2019-04-25T15:36:23.628Z,50.90
2019-04-25T15:38:57.545Z,51.20
2019-04-25T15:41:33.712Z,51.20
2019-04-25T15:44:06.301Z,50.80
2019-04-25T15:46:36.244Z,50.90
2019-04-25T15:49:04.878Z,50.80
2019-04-25T15:51:33.187Z,50.50
2019-04-25T15:54:01.480Z,50.90
2019-04-25T15:56:30.309Z,50.60
2019-04-25T15:58:58.914Z,50.70
2019-04-25T16:01:28.318Z,50.90
2019-04-25T16:03:57.008Z,51.20
2019-04-25T16:06:26.599Z,51.30
2019-04-25T16:08:55.201Z,51.20
2019-04-25T16:11:23.475Z,51.20
2019-04-25T16:13:51.791Z,50.90
2019-04-25T16:16:20.430Z,51.50
2019-04-25T16:18:49.016Z,51.10
2019-04-25T16:21:17.649Z,51.10
2019-04-25T16:23:45.966Z,51.10
2019-04-25T16:26:16.009Z,51.10
2019-04-25T16:28:44.578Z,51.10
2019-04-25T16:31:14.824Z,51.10
2019-04-25T16:33:43.491Z,51.10
2019-04-25T16:36:12.071Z,51.10
2019-04-25T16:38:41.067Z,51.10
2019-04-25T16:41:11.365Z,51.10
2019-04-25T16:43:41.303Z,51.20
2019-04-25T16:46:09.895Z,51.10
2019-04-25T16:48:39.055Z,50.90
2019-04-25T16:51:08.055Z,51.10
2019-04-25T16:53:36.666Z,51.30
2019-04-25T16:56:05.559Z,51.10
2019-04-25T16:58:34.138Z,51.10
2019-04-25T17:01:04.169Z,51.10
2019-04-25T17:03:33.035Z,51.10
2019-04-25T17:06:01.475Z,51.20
2019-04-25T17:08:31.012Z,51.10
2019-04-25T17:10:59.942Z,50.90
2019-04-25T17:13:31.135Z,51.00
2019-04-25T17:16:11.039Z,51.10
2019-04-25T17:18:47.071Z,50.90
2019-04-25T17:21:15.401Z,50.90
2019-04-25T17:23:44.067Z,51.00
2019-04-25T17:26:13.344Z,50.90
2019-04-25T17:28:43.288Z,50.50
2019-04-25T17:31:28.240Z,50.60
2019-04-25T17:33:58.558Z,51.20
2019-04-25T17:36:35.714Z,50.90
2019-04-25T17:39:26.226Z,50.90
2019-04-25T17:41:54.819Z,50.90
2019-04-25T17:44:23.118Z,50.70
2019-04-25T17:46:51.588Z,50.60
2019-04-25T17:49:19.901Z,50.50
2019-04-25T17:51:48.205Z,50.40
2019-04-25T17:54:18.430Z,51.00
2019-04-25T17:56:47.008Z,50.40
2019-04-25T17:59:15.601Z,50.60
2019-04-25T18:01:44.349Z,50.60
2019-04-25T18:04:13.070Z,50.60
2019-04-25T18:06:42.105Z,50.60
2019-04-25T18:09:10.850Z,50.60
2019-04-25T18:11:40.116Z,49.90
2019-04-25T18:14:08.636Z,50.40
2019-04-25T18:16:42.321Z,50.30
2019-04-25T18:19:18.376Z,50.30
2019-04-25T18:21:46.667Z,50.30
2019-04-25T18:24:35.249Z,50.40
2019-04-25T18:27:07.744Z,50.40
2019-04-25T18:29:37.359Z,50.30
2019-04-25T18:32:06.130Z,50.60
2019-04-25T18:34:48.082Z,50.40
2019-04-25T18:37:23.730Z,50.50
2019-04-25T18:39:53.962Z,50.40
2019-04-25T18:42:39.908Z,50.50
2019-04-25T18:45:10.277Z,51.00
2019-04-25T18:47:38.859Z,50.30
2019-04-25T18:50:08.665Z,50.30
2019-04-25T18:52:45.079Z,50.20
2019-04-25T18:55:31.862Z,50.30
2019-04-25T18:58:02.076Z,50.40
2019-04-25T19:00:32.016Z,50.30
2019-04-25T19:03:22.473Z,50.30
2019-04-25T19:05:45.861Z,50.20
2019-04-25T19:08:14.286Z,50.10
2019-04-25T19:10:42.907Z,50.10
2019-04-25T19:13:12.843Z,50.20
2019-04-25T19:15:43.011Z,50.00
2019-04-25T19:18:11.493Z,50.10
2019-04-25T19:20:40.019Z,50.10
2019-04-25T19:23:08.703Z,50.00
2019-04-25T19:25:37.287Z,50.10
2019-04-25T19:28:05.570Z,50.10
2019-04-25T19:30:34.148Z,50.20
2019-04-25T19:33:02.438Z,50.10
2019-04-25T19:35:31.012Z,50.00
2019-04-25T19:38:00.967Z,49.90
2019-04-25T19:40:36.898Z,49.80
2019-04-25T19:43:12.941Z,50.00
2019-04-25T19:45:42.531Z,49.80
2019-04-25T19:48:10.987Z,49.80
2019-04-25T19:50:40.687Z,49.80
2019-04-25T19:53:09.635Z,49.80
2019-04-25T19:55:38.214Z,49.90
2019-04-25T19:58:06.508Z,49.80
2019-04-25T20:00:37.008Z,49.80
2019-04-25T20:03:06.732Z,49.80
2019-04-25T20:05:55.089Z,49.90
2019-04-25T20:08:25.307Z,49.90
2019-04-25T20:10:58.128Z,49.80
2019-04-25T20:13:26.437Z,49.80
2019-04-25T20:15:55.053Z,49.80
2019-04-25T20:18:23.371Z,50.00
2019-04-25T20:20:52.091Z,49.80
2019-04-25T20:23:20.792Z,50.00
2019-04-25T20:25:49.103Z,49.80
2019-04-25T20:28:17.659Z,49.80
2019-04-25T20:30:47.036Z,49.70
2019-04-25T20:33:15.511Z,49.80
2019-04-25T20:35:44.869Z,49.70
2019-04-25T20:38:13.834Z,49.80
2019-04-25T20:40:42.188Z,50.20
2019-04-25T20:43:10.566Z,50.50
2019-04-25T20:45:39.171Z,49.80
2019-04-25T20:48:07.755Z,49.90
2019-04-25T20:50:36.058Z,49.80
2019-04-25T20:53:04.451Z,49.80
2019-04-25T20:55:33.105Z,49.80
2019-04-25T20:58:01.487Z,49.70
2019-04-25T21:00:40.040Z,49.70
2019-04-25T21:03:08.993Z,49.80
2019-04-25T21:05:37.400Z,49.80
2019-04-25T21:08:06.074Z,49.90
2019-04-25T21:10:34.678Z,49.70
2019-04-25T21:13:04.622Z,49.60
2019-04-25T21:15:40.514Z,49.20
2019-04-25T21:18:15.968Z,49.30
2019-04-25T21:20:44.292Z,49.20
2019-04-25T21:23:12.667Z,49.20
2019-04-25T21:25:41.290Z,49.50
2019-04-25T21:28:09.894Z,49.20
2019-04-25T21:30:38.476Z,49.10
2019-04-25T21:33:07.188Z,49.30
2019-04-25T21:35:36.350Z,49.20
2019-04-25T21:38:04.924Z,49.20
2019-04-25T21:40:51.390Z,49.20
2019-04-25T21:43:21.960Z,49.10
2019-04-25T21:45:50.559Z,49.00
2019-04-25T21:48:20.660Z,49.20
2019-04-25T21:50:49.261Z,49.00
2019-04-25T21:53:18.138Z,49.10
2019-04-25T21:55:47.032Z,49.10
2019-04-25T21:58:15.705Z,49.10
2019-04-25T22:00:52.292Z,49.00
2019-04-25T22:03:22.630Z,49.10
2019-04-25T22:05:51.512Z,49.00
2019-04-25T22:08:20.179Z,49.00
2019-04-25T22:10:48.792Z,48.90
2019-04-25T22:13:17.679Z,48.90
2019-04-25T22:15:47.101Z,48.80
2019-04-25T22:18:16.057Z,48.70
2019-04-25T22:20:44.737Z,49.00
2019-04-25T22:23:13.403Z,48.90
2019-04-25T22:25:42.050Z,49.50
2019-04-25T22:28:10.776Z,48.80
2019-04-25T22:30:41.032Z,48.70
2019-04-25T22:33:13.424Z,48.70
2019-04-25T22:35:46.275Z,48.70
2019-04-25T22:38:15.276Z,48.60
2019-04-25T22:40:43.594Z,48.60
2019-04-25T22:43:12.359Z,48.60
2019-04-25T22:45:41.327Z,48.60
2019-04-25T22:48:09.962Z,48.60
2019-04-25T22:50:39.537Z,48.60
2019-04-25T22:53:08.303Z,48.60
2019-04-25T22:55:38.173Z,48.50
2019-04-25T22:58:07.622Z,48.50
2019-04-25T23:00:37.742Z,48.70
2019-04-25T23:03:11.431Z,48.80
2019-04-25T23:05:41.796Z,48.80
2019-04-25T23:08:10.767Z,48.70
2019-04-25T23:10:39.070Z,48.50
2019-04-25T23:13:08.738Z,48.60
2019-04-25T23:15:37.253Z,48.60
2019-04-25T23:18:06.946Z,48.50
2019-04-25T23:20:35.838Z,48.70
2019-04-25T23:23:04.754Z,48.40
2019-04-25T23:25:36.079Z,48.80
2019-04-25T23:28:06.424Z,48.80
2019-04-25T23:30:37.358Z,48.80
2019-04-25T23:33:06.791Z,48.80
2019-04-25T23:35:35.838Z,48.70
2019-04-25T23:38:05.690Z,48.50
2019-04-25T23:40:34.227Z,48.50
2019-04-25T23:43:02.911Z,48.50
2019-04-25T23:45:31.508Z,48.40
2019-04-25T23:48:00.081Z,48.40
2019-04-25T23:50:29.078Z,48.50
2019-04-25T23:52:57.675Z,48.00
2019-04-25T23:55:26.662Z,48.60
2019-04-25T23:57:55.247Z,48.60
